sensor_id;sensor_type;location;lat;lon;timestamp;P1;P2;P0
65012;PMS5003;51715;39.432;-77.518;2022-12-26T00:00:18;4;4;
65012;PMS5003;51715;39.432;-77.518;2022-12-26T00:02:47;6;4;
65012;PMS5003;51715;39.432;-77.518;2022-12-26T00:05:16;4;4;
65012;PMS5003;51715;39.432;-77.518;2022-12-26T00:07:45;5;5;
65012;PMS5003;51715;39.432;-77.518;2022-12-26T00:10:13;4;4;
65012;PMS5003;51715;39.432;-77.518;2022-12-26T00:12:42;6;4;
65012;PMS5003;51715;39.432;-77.518;2022-12-26T00:15:10;6;5;
65012;PMS5003;51715;39.432;-77.518;2022-12-26T00:17:39;4;4;
65012;PMS5003;51715;39.432;-77.518;2022-12-26T00:20:08;5;5;
65012;PMS5003;51715;39.432;-77.518;2022-12-26T00:22:38;6;5;
65012;PMS5003;51715;39.432;-77.518;2022-12-26T00:25:07;5;5;
65012;PMS5003;51715;39.432;-77.518;2022-12-26T00:27:36;5;5;
65012;PMS5003;51715;39.432;-77.518;2022-12-26T00:30:05;7;7;
65012;PMS5003;51715;39.432;-77.518;2022-12-26T00:32:34;7;5;
65012;PMS5003;51715;39.432;-77.518;2022-12-26T00:35:03;5;5;
65012;PMS5003;51715;39.432;-77.518;2022-12-26T00:37:32;9;7;
65012;PMS5003;51715;39.432;-77.518;2022-12-26T00:40:00;10;8;
65012;PMS5003;51715;39.432;-77.518;2022-12-26T00:42:29;6;6;
65012;PMS5003;51715;39.432;-77.518;2022-12-26T00:44:57;8;6;
65012;PMS5003;51715;39.432;-77.518;2022-12-26T00:47:26;6;6;
65012;PMS5003;51715;39.432;-77.518;2022-12-26T00:49:54;5;5;
65012;PMS5003;51715;39.432;-77.518;2022-12-26T00:52:23;7;6;
65012;PMS5003;51715;39.432;-77.518;2022-12-26T00:54:51;10;7;
65012;PMS5003;51715;39.432;-77.518;2022-12-26T00:57:19;11;8;
65012;PMS5003;51715;39.432;-77.518;2022-12-26T00:59:47;8;6;
65012;PMS5003;51715;39.432;-77.518;2022-12-26T01:02:15;5;5;
65012;PMS5003;51715;39.432;-77.518;2022-12-26T01:04:43;6;5;
65012;PMS5003;51715;39.432;-77.518;2022-12-26T01:07:12;5;5;
65012;PMS5003;51715;39.432;-77.518;2022-12-26T01:09:41;9;6;
65012;PMS5003;51715;39.432;-77.518;2022-12-26T01:12:10;6;4;
65012;PMS5003;51715;39.432;-77.518;2022-12-26T01:14:39;6;6;
65012;PMS5003;51715;39.432;-77.518;2022-12-26T01:17:07;3;3;
65012;PMS5003;51715;39.432;-77.518;2022-12-26T01:19:36;8;7;
65012;PMS5003;51715;39.432;-77.518;2022-12-26T01:22:04;3;3;
65012;PMS5003;51715;39.432;-77.518;2022-12-26T01:24:33;5;5;
65012;PMS5003;51715;39.432;-77.518;2022-12-26T01:27:02;3;3;
65012;PMS5003;51715;39.432;-77.518;2022-12-26T01:29:31;6;4;
65012;PMS5003;51715;39.432;-77.518;2022-12-26T01:32:00;9;6;
65012;PMS5003;51715;39.432;-77.518;2022-12-26T01:34:29;7;5;
65012;PMS5003;51715;39.432;-77.518;2022-12-26T01:36:57;10;8;
65012;PMS5003;51715;39.432;-77.518;2022-12-26T01:39:26;7;7;
65012;PMS5003;51715;39.432;-77.518;2022-12-26T01:41:54;6;6;
65012;PMS5003;51715;39.432;-77.518;2022-12-26T01:45:28;6;5;
65012;PMS5003;51715;39.432;-77.518;2022-12-26T01:48:00;4;4;
65012;PMS5003;51715;39.432;-77.518;2022-12-26T01:50:34;6;6;
65012;PMS5003;51715;39.432;-77.518;2022-12-26T01:53:11;4;4;
65012;PMS5003;51715;39.432;-77.518;2022-12-26T01:55:45;5;5;
65012;PMS5003;51715;39.432;-77.518;2022-12-26T01:58:18;4;4;
65012;PMS5003;51715;39.432;-77.518;2022-12-26T02:00:50;4;4;
65012;PMS5003;51715;39.432;-77.518;2022-12-26T02:03:20;5;5;
65012;PMS5003;51715;39.432;-77.518;2022-12-26T02:05:48;5;5;
65012;PMS5003;51715;39.432;-77.518;2022-12-26T02:08:19;6;5;
65012;PMS5003;51715;39.432;-77.518;2022-12-26T02:10:54;7;7;
65012;PMS5003;51715;39.432;-77.518;2022-12-26T02:13:27;6;6;
65012;PMS5003;51715;39.432;-77.518;2022-12-26T02:15:57;6;6;
65012;PMS5003;51715;39.432;-77.518;2022-12-26T02:18:25;8;8;
65012;PMS5003;51715;39.432;-77.518;2022-12-26T02:20:57;12;8;
65012;PMS5003;51715;39.432;-77.518;2022-12-26T02:23:44;6;6;
65012;PMS5003;51715;39.432;-77.518;2022-12-26T02:27:51;25;12;
65012;PMS5003;51715;39.432;-77.518;2022-12-26T02:30:38;25;23;
65012;PMS5003;51715;39.432;-77.518;2022-12-26T02:33:19;32;25;
65012;PMS5003;51715;39.432;-77.518;2022-12-26T02:36:03;64;55;
65012;PMS5003;51715;39.432;-77.518;2022-12-26T02:38:46;56;41;
65012;PMS5003;51715;39.432;-77.518;2022-12-26T02:41:23;59;46;
65012;PMS5003;51715;39.432;-77.518;2022-12-26T02:44:02;45;37;
65012;PMS5003;51715;39.432;-77.518;2022-12-26T02:46:40;33;24;
65012;PMS5003;51715;39.432;-77.518;2022-12-26T02:49:17;45;33;
65012;PMS5003;51715;39.432;-77.518;2022-12-26T02:51:55;26;20;
65012;PMS5003;51715;39.432;-77.518;2022-12-26T02:54:32;30;22;
65012;PMS5003;51715;39.432;-77.518;2022-12-26T02:57:07;21;14;
65012;PMS5003;51715;39.432;-77.518;2022-12-26T02:59:44;12;12;
65012;PMS5003;51715;39.432;-77.518;2022-12-26T03:02:21;13;12;
65012;PMS5003;51715;39.432;-77.518;2022-12-26T03:04:54;22;17;
65012;PMS5003;51715;39.432;-77.518;2022-12-26T03:07:26;41;27;
65012;PMS5003;51715;39.432;-77.518;2022-12-26T03:09:59;29;20;
65012;PMS5003;51715;39.432;-77.518;2022-12-26T03:12:35;28;19;
65012;PMS5003;51715;39.432;-77.518;2022-12-26T03:15:10;15;15;
65012;PMS5003;51715;39.432;-77.518;2022-12-26T03:17:42;7;7;
65012;PMS5003;51715;39.432;-77.518;2022-12-26T03:20:15;17;14;
65012;PMS5003;51715;39.432;-77.518;2022-12-26T03:22:48;26;20;
65012;PMS5003;51715;39.432;-77.518;2022-12-26T03:25:23;14;13;
65012;PMS5003;51715;39.432;-77.518;2022-12-26T03:28:01;19;16;
65012;PMS5003;51715;39.432;-77.518;2022-12-26T03:30:31;10;9;
65012;PMS5003;51715;39.432;-77.518;2022-12-26T03:32:59;15;9;
65012;PMS5003;51715;39.432;-77.518;2022-12-26T03:35:30;8;7;
65012;PMS5003;51715;39.432;-77.518;2022-12-26T03:38:01;9;9;
65012;PMS5003;51715;39.432;-77.518;2022-12-26T03:40:39;10;8;
65012;PMS5003;51715;39.432;-77.518;2022-12-26T03:43:17;13;13;
65012;PMS5003;51715;39.432;-77.518;2022-12-26T03:45:57;7;6;
65012;PMS5003;51715;39.432;-77.518;2022-12-26T03:48:36;10;6;
65012;PMS5003;51715;39.432;-77.518;2022-12-26T03:51:17;7;6;
65012;PMS5003;51715;39.432;-77.518;2022-12-26T03:53:52;10;6;
65012;PMS5003;51715;39.432;-77.518;2022-12-26T03:56:27;8;8;
65012;PMS5003;51715;39.432;-77.518;2022-12-26T03:59:03;8;8;
65012;PMS5003;51715;39.432;-77.518;2022-12-26T04:01:34;24;21;
65012;PMS5003;51715;39.432;-77.518;2022-12-26T04:04:07;24;19;
65012;PMS5003;51715;39.432;-77.518;2022-12-26T04:06:42;15;13;
65012;PMS5003;51715;39.432;-77.518;2022-12-26T04:09:18;15;13;
65012;PMS5003;51715;39.432;-77.518;2022-12-26T04:11:50;18;12;
65012;PMS5003;51715;39.432;-77.518;2022-12-26T04:14:29;13;13;
65012;PMS5003;51715;39.432;-77.518;2022-12-26T04:17:07;17;13;
65012;PMS5003;51715;39.432;-77.518;2022-12-26T04:19:47;8;8;
65012;PMS5003;51715;39.432;-77.518;2022-12-26T04:22:22;12;12;
65012;PMS5003;51715;39.432;-77.518;2022-12-26T04:24:58;9;8;
65012;PMS5003;51715;39.432;-77.518;2022-12-26T04:27:32;15;10;
65012;PMS5003;51715;39.432;-77.518;2022-12-26T04:30:01;11;8;
65012;PMS5003;51715;39.432;-77.518;2022-12-26T04:32:33;9;9;
65012;PMS5003;51715;39.432;-77.518;2022-12-26T04:35:08;16;11;
65012;PMS5003;51715;39.432;-77.518;2022-12-26T04:37:42;15;14;
65012;PMS5003;51715;39.432;-77.518;2022-12-26T04:40:14;10;8;
65012;PMS5003;51715;39.432;-77.518;2022-12-26T04:42:46;11;8;
65012;PMS5003;51715;39.432;-77.518;2022-12-26T04:45:15;9;9;
65012;PMS5003;51715;39.432;-77.518;2022-12-26T04:47:45;19;12;
65012;PMS5003;51715;39.432;-77.518;2022-12-26T04:50:14;15;14;
65012;PMS5003;51715;39.432;-77.518;2022-12-26T04:52:43;18;14;
65012;PMS5003;51715;39.432;-77.518;2022-12-26T04:55:13;10;10;
65012;PMS5003;51715;39.432;-77.518;2022-12-26T04:57:41;15;13;
65012;PMS5003;51715;39.432;-77.518;2022-12-26T05:04:05;25;19;
65012;PMS5003;51715;39.432;-77.518;2022-12-26T05:06:35;19;16;
65012;PMS5003;51715;39.432;-77.518;2022-12-26T05:09:07;16;11;
65012;PMS5003;51715;39.432;-77.518;2022-12-26T05:11:37;33;22;
65012;PMS5003;51715;39.432;-77.518;2022-12-26T05:14:05;20;16;
65012;PMS5003;51715;39.432;-77.518;2022-12-26T05:16:33;21;19;
65012;PMS5003;51715;39.432;-77.518;2022-12-26T05:19:02;15;13;
65012;PMS5003;51715;39.432;-77.518;2022-12-26T05:21:32;21;16;
65012;PMS5003;51715;39.432;-77.518;2022-12-26T05:24:00;15;15;
65012;PMS5003;51715;39.432;-77.518;2022-12-26T05:26:29;18;11;
65012;PMS5003;51715;39.432;-77.518;2022-12-26T05:28:58;14;12;
65012;PMS5003;51715;39.432;-77.518;2022-12-26T05:31:27;19;12;
65012;PMS5003;51715;39.432;-77.518;2022-12-26T05:33:55;14;13;
65012;PMS5003;51715;39.432;-77.518;2022-12-26T05:36:23;19;18;
65012;PMS5003;51715;39.432;-77.518;2022-12-26T05:38:55;19;17;
65012;PMS5003;51715;39.432;-77.518;2022-12-26T05:41:23;18;16;
65012;PMS5003;51715;39.432;-77.518;2022-12-26T05:43:51;19;16;
65012;PMS5003;51715;39.432;-77.518;2022-12-26T05:46:19;12;12;
65012;PMS5003;51715;39.432;-77.518;2022-12-26T05:48:47;20;17;
65012;PMS5003;51715;39.432;-77.518;2022-12-26T05:51:15;18;15;
65012;PMS5003;51715;39.432;-77.518;2022-12-26T05:53:44;14;13;
65012;PMS5003;51715;39.432;-77.518;2022-12-26T05:56:13;16;15;
65012;PMS5003;51715;39.432;-77.518;2022-12-26T05:58:43;20;18;
65012;PMS5003;51715;39.432;-77.518;2022-12-26T06:01:13;15;15;
65012;PMS5003;51715;39.432;-77.518;2022-12-26T06:03:42;19;14;
65012;PMS5003;51715;39.432;-77.518;2022-12-26T06:06:12;14;13;
65012;PMS5003;51715;39.432;-77.518;2022-12-26T06:08:42;17;16;
65012;PMS5003;51715;39.432;-77.518;2022-12-26T06:11:13;15;12;
65012;PMS5003;51715;39.432;-77.518;2022-12-26T06:13:42;19;12;
65012;PMS5003;51715;39.432;-77.518;2022-12-26T06:16:11;23;17;
65012;PMS5003;51715;39.432;-77.518;2022-12-26T06:18:40;22;17;
65012;PMS5003;51715;39.432;-77.518;2022-12-26T06:21:09;22;20;
65012;PMS5003;51715;39.432;-77.518;2022-12-26T06:23:39;19;18;
65012;PMS5003;51715;39.432;-77.518;2022-12-26T06:26:08;26;19;
65012;PMS5003;51715;39.432;-77.518;2022-12-26T06:28:36;15;15;
65012;PMS5003;51715;39.432;-77.518;2022-12-26T06:31:06;22;16;
65012;PMS5003;51715;39.432;-77.518;2022-12-26T06:33:37;22;22;
65012;PMS5003;51715;39.432;-77.518;2022-12-26T06:36:07;21;15;
65012;PMS5003;51715;39.432;-77.518;2022-12-26T06:38:37;15;14;
65012;PMS5003;51715;39.432;-77.518;2022-12-26T06:41:06;12;9;
65012;PMS5003;51715;39.432;-77.518;2022-12-26T06:43:36;10;10;
65012;PMS5003;51715;39.432;-77.518;2022-12-26T06:46:05;7;7;
65012;PMS5003;51715;39.432;-77.518;2022-12-26T06:48:36;16;12;
65012;PMS5003;51715;39.432;-77.518;2022-12-26T06:51:05;9;7;
65012;PMS5003;51715;39.432;-77.518;2022-12-26T06:53:35;10;10;
65012;PMS5003;51715;39.432;-77.518;2022-12-26T06:56:04;9;9;
65012;PMS5003;51715;39.432;-77.518;2022-12-26T06:58:33;13;11;
65012;PMS5003;51715;39.432;-77.518;2022-12-26T07:01:03;18;15;
65012;PMS5003;51715;39.432;-77.518;2022-12-26T07:03:32;12;9;
65012;PMS5003;51715;39.432;-77.518;2022-12-26T07:06:02;14;14;
65012;PMS5003;51715;39.432;-77.518;2022-12-26T07:08:32;14;11;
65012;PMS5003;51715;39.432;-77.518;2022-12-26T07:11:00;12;12;
65012;PMS5003;51715;39.432;-77.518;2022-12-26T07:13:29;12;11;
65012;PMS5003;51715;39.432;-77.518;2022-12-26T07:15:57;12;6;
65012;PMS5003;51715;39.432;-77.518;2022-12-26T07:18:26;14;7;
65012;PMS5003;51715;39.432;-77.518;2022-12-26T07:20:54;8;8;
65012;PMS5003;51715;39.432;-77.518;2022-12-26T07:23:23;8;6;
65012;PMS5003;51715;39.432;-77.518;2022-12-26T07:25:51;11;8;
65012;PMS5003;51715;39.432;-77.518;2022-12-26T07:28:19;6;6;
65012;PMS5003;51715;39.432;-77.518;2022-12-26T07:30:48;7;5;
65012;PMS5003;51715;39.432;-77.518;2022-12-26T07:33:16;6;6;
65012;PMS5003;51715;39.432;-77.518;2022-12-26T07:35:45;4;4;
65012;PMS5003;51715;39.432;-77.518;2022-12-26T07:38:13;11;9;
65012;PMS5003;51715;39.432;-77.518;2022-12-26T07:40:43;11;7;
65012;PMS5003;51715;39.432;-77.518;2022-12-26T07:43:12;11;9;
65012;PMS5003;51715;39.432;-77.518;2022-12-26T07:45:40;8;7;
65012;PMS5003;51715;39.432;-77.518;2022-12-26T07:48:08;12;9;
65012;PMS5003;51715;39.432;-77.518;2022-12-26T07:50:36;8;6;
65012;PMS5003;51715;39.432;-77.518;2022-12-26T07:53:05;6;5;
65012;PMS5003;51715;39.432;-77.518;2022-12-26T07:55:33;9;8;
65012;PMS5003;51715;39.432;-77.518;2022-12-26T07:58:03;9;7;
65012;PMS5003;51715;39.432;-77.518;2022-12-26T08:00:31;6;6;
65012;PMS5003;51715;39.432;-77.518;2022-12-26T08:03:01;4;4;
65012;PMS5003;51715;39.432;-77.518;2022-12-26T08:05:29;4;4;
65012;PMS5003;51715;39.432;-77.518;2022-12-26T08:07:58;7;4;
65012;PMS5003;51715;39.432;-77.518;2022-12-26T08:10:26;2;2;
65012;PMS5003;51715;39.432;-77.518;2022-12-26T08:12:55;4;4;
65012;PMS5003;51715;39.432;-77.518;2022-12-26T08:15:24;6;6;
65012;PMS5003;51715;39.432;-77.518;2022-12-26T08:17:52;5;4;
65012;PMS5003;51715;39.432;-77.518;2022-12-26T08:20:21;5;4;
65012;PMS5003;51715;39.432;-77.518;2022-12-26T08:22:49;7;6;
65012;PMS5003;51715;39.432;-77.518;2022-12-26T08:25:17;5;5;
65012;PMS5003;51715;39.432;-77.518;2022-12-26T08:27:46;5;3;
65012;PMS5003;51715;39.432;-77.518;2022-12-26T08:30:14;4;4;
65012;PMS5003;51715;39.432;-77.518;2022-12-26T08:32:43;3;3;
65012;PMS5003;51715;39.432;-77.518;2022-12-26T08:35:11;4;4;
65012;PMS5003;51715;39.432;-77.518;2022-12-26T08:37:39;5;3;
65012;PMS5003;51715;39.432;-77.518;2022-12-26T08:40:08;4;4;
65012;PMS5003;51715;39.432;-77.518;2022-12-26T08:42:36;5;3;
65012;PMS5003;51715;39.432;-77.518;2022-12-26T08:45:05;4;4;
65012;PMS5003;51715;39.432;-77.518;2022-12-26T08:47:33;5;4;
65012;PMS5003;51715;39.432;-77.518;2022-12-26T08:50:02;5;5;
65012;PMS5003;51715;39.432;-77.518;2022-12-26T08:52:31;8;6;
65012;PMS5003;51715;39.432;-77.518;2022-12-26T08:55:00;6;5;
65012;PMS5003;51715;39.432;-77.518;2022-12-26T08:57:29;7;5;
65012;PMS5003;51715;39.432;-77.518;2022-12-26T08:59:57;6;4;
65012;PMS5003;51715;39.432;-77.518;2022-12-26T09:02:25;5;5;
65012;PMS5003;51715;39.432;-77.518;2022-12-26T09:04:54;3;3;
65012;PMS5003;51715;39.432;-77.518;2022-12-26T09:07:22;5;4;
65012;PMS5003;51715;39.432;-77.518;2022-12-26T09:09:50;5;3;
65012;PMS5003;51715;39.432;-77.518;2022-12-26T09:12:18;3;3;
65012;PMS5003;51715;39.432;-77.518;2022-12-26T09:14:46;3;3;
65012;PMS5003;51715;39.432;-77.518;2022-12-26T09:17:14;7;3;
65012;PMS5003;51715;39.432;-77.518;2022-12-26T09:19:43;3;3;
65012;PMS5003;51715;39.432;-77.518;2022-12-26T09:22:11;4;4;
65012;PMS5003;51715;39.432;-77.518;2022-12-26T09:24:39;7;5;
65012;PMS5003;51715;39.432;-77.518;2022-12-26T09:27:07;3;3;
65012;PMS5003;51715;39.432;-77.518;2022-12-26T09:29:36;5;5;
65012;PMS5003;51715;39.432;-77.518;2022-12-26T09:32:05;3;3;
65012;PMS5003;51715;39.432;-77.518;2022-12-26T09:34:33;5;5;
65012;PMS5003;51715;39.432;-77.518;2022-12-26T09:37:01;4;4;
65012;PMS5003;51715;39.432;-77.518;2022-12-26T09:39:29;5;3;
65012;PMS5003;51715;39.432;-77.518;2022-12-26T09:42:00;5;5;
65012;PMS5003;51715;39.432;-77.518;2022-12-26T09:44:38;5;4;
65012;PMS5003;51715;39.432;-77.518;2022-12-26T09:47:16;5;4;
65012;PMS5003;51715;39.432;-77.518;2022-12-26T09:49:56;6;5;
65012;PMS5003;51715;39.432;-77.518;2022-12-26T09:52:32;3;3;
65012;PMS5003;51715;39.432;-77.518;2022-12-26T09:55:12;4;4;
65012;PMS5003;51715;39.432;-77.518;2022-12-26T09:57:51;5;4;
65012;PMS5003;51715;39.432;-77.518;2022-12-26T10:00:24;4;4;
65012;PMS5003;51715;39.432;-77.518;2022-12-26T10:02:56;3;3;
65012;PMS5003;51715;39.432;-77.518;2022-12-26T10:05:26;2;2;
65012;PMS5003;51715;39.432;-77.518;2022-12-26T10:08:19;5;4;
65012;PMS5003;51715;39.432;-77.518;2022-12-26T10:10:56;6;4;
65012;PMS5003;51715;39.432;-77.518;2022-12-26T10:13:29;6;5;
65012;PMS5003;51715;39.432;-77.518;2022-12-26T10:16:07;2;2;
65012;PMS5003;51715;39.432;-77.518;2022-12-26T10:18:42;6;6;
65012;PMS5003;51715;39.432;-77.518;2022-12-26T10:21:23;6;3;
65012;PMS5003;51715;39.432;-77.518;2022-12-26T10:24:08;3;3;
65012;PMS5003;51715;39.432;-77.518;2022-12-26T10:26:43;3;3;
65012;PMS5003;51715;39.432;-77.518;2022-12-26T10:29:17;4;4;
65012;PMS5003;51715;39.432;-77.518;2022-12-26T10:31:49;4;4;
65012;PMS5003;51715;39.432;-77.518;2022-12-26T10:34:23;3;3;
65012;PMS5003;51715;39.432;-77.518;2022-12-26T10:36:58;3;3;
65012;PMS5003;51715;39.432;-77.518;2022-12-26T10:39:29;4;4;
65012;PMS5003;51715;39.432;-77.518;2022-12-26T10:42:07;2;2;
65012;PMS5003;51715;39.432;-77.518;2022-12-26T10:44:42;5;5;
65012;PMS5003;51715;39.432;-77.518;2022-12-26T10:47:14;5;5;
65012;PMS5003;51715;39.432;-77.518;2022-12-26T10:49:53;5;5;
65012;PMS5003;51715;39.432;-77.518;2022-12-26T10:52:23;3;3;
65012;PMS5003;51715;39.432;-77.518;2022-12-26T10:54:57;5;5;
65012;PMS5003;51715;39.432;-77.518;2022-12-26T10:57:26;5;5;
65012;PMS5003;51715;39.432;-77.518;2022-12-26T10:59:58;4;4;
65012;PMS5003;51715;39.432;-77.518;2022-12-26T11:02:27;6;4;
65012;PMS5003;51715;39.432;-77.518;2022-12-26T11:04:58;4;3;
65012;PMS5003;51715;39.432;-77.518;2022-12-26T11:07:29;4;2;
65012;PMS5003;51715;39.432;-77.518;2022-12-26T11:10:00;3;3;
65012;PMS5003;51715;39.432;-77.518;2022-12-26T11:12:34;5;5;
65012;PMS5003;51715;39.432;-77.518;2022-12-26T11:15:06;5;3;
65012;PMS5003;51715;39.432;-77.518;2022-12-26T11:17:47;4;4;
65012;PMS5003;51715;39.432;-77.518;2022-12-26T11:20:22;6;5;
65012;PMS5003;51715;39.432;-77.518;2022-12-26T11:22:53;4;4;
65012;PMS5003;51715;39.432;-77.518;2022-12-26T11:25:22;8;6;
65012;PMS5003;51715;39.432;-77.518;2022-12-26T11:27:52;5;5;
65012;PMS5003;51715;39.432;-77.518;2022-12-26T11:30:23;3;3;
65012;PMS5003;51715;39.432;-77.518;2022-12-26T11:33:03;7;4;
65012;PMS5003;51715;39.432;-77.518;2022-12-26T11:35:36;5;5;
65012;PMS5003;51715;39.432;-77.518;2022-12-26T11:38:12;6;5;
65012;PMS5003;51715;39.432;-77.518;2022-12-26T11:40:46;10;9;
65012;PMS5003;51715;39.432;-77.518;2022-12-26T11:43:14;8;8;
65012;PMS5003;51715;39.432;-77.518;2022-12-26T11:45:47;126;107;
65012;PMS5003;51715;39.432;-77.518;2022-12-26T11:48:18;269;211;
65012;PMS5003;51715;39.432;-77.518;2022-12-26T11:50:50;113;94;
65012;PMS5003;51715;39.432;-77.518;2022-12-26T11:53:20;95;83;
65012;PMS5003;51715;39.432;-77.518;2022-12-26T11:55:56;58;53;
65012;PMS5003;51715;39.432;-77.518;2022-12-26T11:58:27;48;40;
65012;PMS5003;51715;39.432;-77.518;2022-12-26T12:01:05;20;14;
65012;PMS5003;51715;39.432;-77.518;2022-12-26T12:03:41;18;13;
65012;PMS5003;51715;39.432;-77.518;2022-12-26T12:06:15;22;21;
65012;PMS5003;51715;39.432;-77.518;2022-12-26T12:08:59;14;10;
65012;PMS5003;51715;39.432;-77.518;2022-12-26T12:11:35;20;19;
65012;PMS5003;51715;39.432;-77.518;2022-12-26T12:14:14;43;41;
65012;PMS5003;51715;39.432;-77.518;2022-12-26T12:17:10;38;32;
65012;PMS5003;51715;39.432;-77.518;2022-12-26T12:19:59;15;13;
65012;PMS5003;51715;39.432;-77.518;2022-12-26T12:22:42;5;2;
65012;PMS5003;51715;39.432;-77.518;2022-12-26T12:25:25;7;6;
65012;PMS5003;51715;39.432;-77.518;2022-12-26T12:28:03;172;115;
65012;PMS5003;51715;39.432;-77.518;2022-12-26T12:30:47;73;51;
65012;PMS5003;51715;39.432;-77.518;2022-12-26T12:33:29;5;5;
65012;PMS5003;51715;39.432;-77.518;2022-12-26T12:36:10;20;17;
65012;PMS5003;51715;39.432;-77.518;2022-12-26T12:38:54;4;4;
65012;PMS5003;51715;39.432;-77.518;2022-12-26T12:41:52;7;4;
65012;PMS5003;51715;39.432;-77.518;2022-12-26T12:44:38;9;6;
65012;PMS5003;51715;39.432;-77.518;2022-12-26T12:47:26;4;4;
65012;PMS5003;51715;39.432;-77.518;2022-12-26T12:50:03;4;3;
65012;PMS5003;51715;39.432;-77.518;2022-12-26T12:52:41;3;3;
65012;PMS5003;51715;39.432;-77.518;2022-12-26T12:55:20;3;3;
65012;PMS5003;51715;39.432;-77.518;2022-12-26T12:57:58;7;5;
65012;PMS5003;51715;39.432;-77.518;2022-12-26T13:00:34;4;3;
65012;PMS5003;51715;39.432;-77.518;2022-12-26T13:03:10;10;7;
65012;PMS5003;51715;39.432;-77.518;2022-12-26T13:05:47;79;60;
65012;PMS5003;51715;39.432;-77.518;2022-12-26T13:08:22;51;43;
65012;PMS5003;51715;39.432;-77.518;2022-12-26T13:10:58;8;6;
65012;PMS5003;51715;39.432;-77.518;2022-12-26T13:13:42;7;7;
65012;PMS5003;51715;39.432;-77.518;2022-12-26T13:16:16;7;5;
65012;PMS5003;51715;39.432;-77.518;2022-12-26T13:18:49;11;10;
65012;PMS5003;51715;39.432;-77.518;2022-12-26T13:21:20;15;12;
65012;PMS5003;51715;39.432;-77.518;2022-12-26T13:23:51;48;38;
65012;PMS5003;51715;39.432;-77.518;2022-12-26T13:26:23;62;59;
65012;PMS5003;51715;39.432;-77.518;2022-12-26T13:28:56;20;20;
65012;PMS5003;51715;39.432;-77.518;2022-12-26T13:31:31;7;7;
65012;PMS5003;51715;39.432;-77.518;2022-12-26T13:34:02;5;4;
65012;PMS5003;51715;39.432;-77.518;2022-12-26T13:36:36;12;12;
65012;PMS5003;51715;39.432;-77.518;2022-12-26T13:39:39;86;78;
65012;PMS5003;51715;39.432;-77.518;2022-12-26T13:42:37;14;11;
65012;PMS5003;51715;39.432;-77.518;2022-12-26T13:45:46;12;10;
65012;PMS5003;51715;39.432;-77.518;2022-12-26T13:50:46;12;9;
65012;PMS5003;51715;39.432;-77.518;2022-12-26T13:53:30;20;17;
65012;PMS5003;51715;39.432;-77.518;2022-12-26T13:56:01;22;17;
65012;PMS5003;51715;39.432;-77.518;2022-12-26T13:58:35;7;5;
65012;PMS5003;51715;39.432;-77.518;2022-12-26T14:01:20;10;8;
65012;PMS5003;51715;39.432;-77.518;2022-12-26T14:04:03;5;5;
65012;PMS5003;51715;39.432;-77.518;2022-12-26T14:06:55;9;6;
65012;PMS5003;51715;39.432;-77.518;2022-12-26T14:09:39;6;5;
65012;PMS5003;51715;39.432;-77.518;2022-12-26T14:12:23;4;4;
65012;PMS5003;51715;39.432;-77.518;2022-12-26T14:15:06;5;4;
65012;PMS5003;51715;39.432;-77.518;2022-12-26T14:17:50;4;4;
65012;PMS5003;51715;39.432;-77.518;2022-12-26T14:20:32;3;3;
65012;PMS5003;51715;39.432;-77.518;2022-12-26T14:23:16;5;5;
65012;PMS5003;51715;39.432;-77.518;2022-12-26T14:26:01;6;4;
65012;PMS5003;51715;39.432;-77.518;2022-12-26T14:28:44;3;3;
65012;PMS5003;51715;39.432;-77.518;2022-12-26T14:31:23;6;3;
65012;PMS5003;51715;39.432;-77.518;2022-12-26T14:34:02;4;4;
65012;PMS5003;51715;39.432;-77.518;2022-12-26T14:36:39;5;3;
65012;PMS5003;51715;39.432;-77.518;2022-12-26T14:39:18;3;3;
65012;PMS5003;51715;39.432;-77.518;2022-12-26T14:42:28;5;4;
65012;PMS5003;51715;39.432;-77.518;2022-12-26T14:44:59;2;2;
65012;PMS5003;51715;39.432;-77.518;2022-12-26T14:47:37;2;2;
65012;PMS5003;51715;39.432;-77.518;2022-12-26T14:50:39;3;3;
65012;PMS5003;51715;39.432;-77.518;2022-12-26T14:53:43;6;4;
65012;PMS5003;51715;39.432;-77.518;2022-12-26T14:56:35;2;2;
65012;PMS5003;51715;39.432;-77.518;2022-12-26T14:59:37;3;2;
65012;PMS5003;51715;39.432;-77.518;2022-12-26T15:02:09;0;0;
65012;PMS5003;51715;39.432;-77.518;2022-12-26T15:05:00;4;3;
65012;PMS5003;51715;39.432;-77.518;2022-12-26T15:08:07;9;4;
65012;PMS5003;51715;39.432;-77.518;2022-12-26T15:12:01;2;2;
65012;PMS5003;51715;39.432;-77.518;2022-12-26T15:15:57;4;4;
65012;PMS5003;51715;39.432;-77.518;2022-12-26T15:21:04;3;1;
65012;PMS5003;51715;39.432;-77.518;2022-12-26T15:23:50;4;3;
65012;PMS5003;51715;39.432;-77.518;2022-12-26T15:27:43;3;2;
65012;PMS5003;51715;39.432;-77.518;2022-12-26T15:30:40;4;4;
65012;PMS5003;51715;39.432;-77.518;2022-12-26T15:33:24;4;4;
65012;PMS5003;51715;39.432;-77.518;2022-12-26T15:36:02;4;2;
65012;PMS5003;51715;39.432;-77.518;2022-12-26T15:38:35;5;5;
65012;PMS5003;51715;39.432;-77.518;2022-12-26T15:41:13;4;3;
65012;PMS5003;51715;39.432;-77.518;2022-12-26T15:44:00;2;2;
65012;PMS5003;51715;39.432;-77.518;2022-12-26T15:46:44;3;3;
65012;PMS5003;51715;39.432;-77.518;2022-12-26T15:49:27;3;3;
65012;PMS5003;51715;39.432;-77.518;2022-12-26T15:52:09;4;2;
65012;PMS5003;51715;39.432;-77.518;2022-12-26T15:54:54;6;5;
65012;PMS5003;51715;39.432;-77.518;2022-12-26T15:57:35;5;4;
65012;PMS5003;51715;39.432;-77.518;2022-12-26T16:00:14;5;4;
65012;PMS5003;51715;39.432;-77.518;2022-12-26T16:02:46;6;4;
65012;PMS5003;51715;39.432;-77.518;2022-12-26T16:05:28;3;2;
65012;PMS5003;51715;39.432;-77.518;2022-12-26T16:08:04;3;2;
65012;PMS5003;51715;39.432;-77.518;2022-12-26T16:10:46;4;3;
65012;PMS5003;51715;39.432;-77.518;2022-12-26T16:13:15;3;3;
65012;PMS5003;51715;39.432;-77.518;2022-12-26T16:15:45;3;3;
65012;PMS5003;51715;39.432;-77.518;2022-12-26T16:18:17;5;2;
65012;PMS5003;51715;39.432;-77.518;2022-12-26T16:20:47;4;4;
65012;PMS5003;51715;39.432;-77.518;2022-12-26T16:23:19;2;2;
65012;PMS5003;51715;39.432;-77.518;2022-12-26T16:25:51;3;3;
65012;PMS5003;51715;39.432;-77.518;2022-12-26T16:28:22;5;2;
65012;PMS5003;51715;39.432;-77.518;2022-12-26T16:30:54;3;3;
65012;PMS5003;51715;39.432;-77.518;2022-12-26T16:33:24;8;3;
65012;PMS5003;51715;39.432;-77.518;2022-12-26T16:35:56;2;2;
65012;PMS5003;51715;39.432;-77.518;2022-12-26T16:38:26;3;3;
65012;PMS5003;51715;39.432;-77.518;2022-12-26T16:40:56;7;5;
65012;PMS5003;51715;39.432;-77.518;2022-12-26T16:43:25;3;3;
65012;PMS5003;51715;39.432;-77.518;2022-12-26T16:45:55;4;4;
65012;PMS5003;51715;39.432;-77.518;2022-12-26T16:48:27;5;5;
65012;PMS5003;51715;39.432;-77.518;2022-12-26T16:50:58;3;3;
65012;PMS5003;51715;39.432;-77.518;2022-12-26T16:53:40;3;3;
65012;PMS5003;51715;39.432;-77.518;2022-12-26T16:56:14;2;2;
65012;PMS5003;51715;39.432;-77.518;2022-12-26T16:58:53;5;2;
65012;PMS5003;51715;39.432;-77.518;2022-12-26T17:01:29;3;3;
65012;PMS5003;51715;39.432;-77.518;2022-12-26T17:03:59;2;1;